Time;durP1;ratioP1;P1;durP2;ratioP2;P2;SDS_P1;SDS_P2;PMS_P1;PMS_P2;Temp;Humidity;BMP_temperature;BMP_pressure;BME280_temperature;BME280_humidity;BME280_pressure;Samples;Min_cycle;Max_cycle;Signal;HPM_P1;HPM_P2
2022/03/08 00:00:27;;;;;;;11.82;1.65;;;;;;;;;;5011970;28;20042;-32
2022/03/08 00:02:54;;;;;;;12.48;1.92;;;;;;;;;;5003546;28;20028;-32
2022/03/08 00:05:22;;;;;;;14.95;1.90;;;;;;;;;;4995942;28;20520;-32
2022/03/08 00:07:49;;;;;;;8.80;1.85;;;;;;;;;;5000800;28;20515;-33
2022/03/08 00:10:17;;;;;;;9.88;1.40;;;;;;;;;;5008704;28;20036;-31
2022/03/08 00:12:46;;;;;;;15.93;2.33;;;;;;;;;;5010500;28;20022;-31
2022/03/08 00:15:14;;;;;;;11.50;1.85;;;;;;;;;;5011186;28;20088;-31
2022/03/08 00:17:41;;;;;;;14.70;2.53;;;;;;;;;;5011259;28;20050;-33
2022/03/08 00:20:08;;;;;;;16.60;2.80;;;;;;;;;;4993435;28;20057;-33
2022/03/08 00:22:36;;;;;;;15.57;2.55;;;;;;;;;;5011707;28;20021;-33
2022/03/08 00:25:04;;;;;;;17.52;2.20;;;;;;;;;;5010773;28;20104;-32
2022/03/08 00:27:31;;;;;;;14.25;2.70;;;;;;;;;;5004370;28;20037;-33
2022/03/08 00:29:58;;;;;;;19.10;2.80;;;;;;;;;;4996533;28;20037;-33
2022/03/08 00:32:25;;;;;;;18.88;3.70;;;;;;;;;;4991891;28;20456;-31
2022/03/08 00:34:52;;;;;;;22.77;4.60;;;;;;;;;;4991324;28;20062;-31
2022/03/08 00:37:20;;;;;;;27.02;5.43;;;;;;;;;;4991973;28;20033;-32
2022/03/08 00:39:47;;;;;;;33.25;7.20;;;;;;;;;;4992131;28;20057;-31
2022/03/08 00:42:14;;;;;;;39.80;7.90;;;;;;;;;;4991626;28;20440;-31
2022/03/08 00:44:41;;;;;;;36.83;8.85;;;;;;;;;;4991684;28;20130;-31
2022/03/08 00:47:08;;;;;;;33.13;7.72;;;;;;;;;;4991790;28;20113;-31
2022/03/08 00:49:36;;;;;;;39.72;9.02;;;;;;;;;;4996570;28;20089;-31
2022/03/08 00:52:03;;;;;;;41.40;9.68;;;;;;;;;;5002827;28;20030;-33
2022/03/08 00:54:30;;;;;;;44.67;9.65;;;;;;;;;;4997696;28;20100;-33
2022/03/08 00:56:57;;;;;;;35.28;7.63;;;;;;;;;;5001026;28;20566;-31
2022/03/08 00:59:25;;;;;;;35.13;8.23;;;;;;;;;;5001310;28;20038;-33
2022/03/08 01:01:52;;;;;;;31.80;7.85;;;;;;;;;;5002397;28;20031;-33
2022/03/08 01:04:19;;;;;;;51.17;8.02;;;;;;;;;;5003809;28;20026;-31
2022/03/08 01:06:46;;;;;;;38.22;7.45;;;;;;;;;;5011192;28;20092;-33
2022/03/08 01:09:13;;;;;;;28.15;6.53;;;;;;;;;;5011705;28;20112;-31
2022/03/08 01:11:41;;;;;;;26.70;6.50;;;;;;;;;;5011000;28;20439;-31
2022/03/08 01:14:09;;;;;;;28.20;7.22;;;;;;;;;;5000094;28;20049;-30
2022/03/08 01:16:36;;;;;;;24.58;6.35;;;;;;;;;;4995462;28;20388;-31
2022/03/08 01:19:04;;;;;;;29.30;6.15;;;;;;;;;;5012459;28;20038;-32
2022/03/08 01:21:32;;;;;;;32.35;7.30;;;;;;;;;;5023897;28;20030;-32
2022/03/08 01:23:58;;;;;;;33.65;7.53;;;;;;;;;;5030808;28;20030;-31
2022/03/08 01:26:25;;;;;;;29.55;6.80;;;;;;;;;;5002771;28;20038;-30
2022/03/08 01:28:52;;;;;;;31.42;6.72;;;;;;;;;;4995991;28;20046;-31
2022/03/08 01:31:19;;;;;;;24.88;5.65;;;;;;;;;;4996019;28;20030;-30
2022/03/08 01:33:46;;;;;;;28.40;6.55;;;;;;;;;;4995993;28;20040;-31
2022/03/08 01:36:13;;;;;;;31.25;6.10;;;;;;;;;;4995991;28;20026;-30
2022/03/08 01:38:41;;;;;;;23.58;6.43;;;;;;;;;;4995793;28;20089;-30
2022/03/08 01:41:08;;;;;;;24.27;5.60;;;;;;;;;;4995879;28;20385;-31
2022/03/08 01:43:35;;;;;;;25.13;6.28;;;;;;;;;;4995754;28;20500;-31
2022/03/08 01:46:02;;;;;;;24.27;5.88;;;;;;;;;;4995623;28;20026;-30
2022/03/08 01:48:30;;;;;;;27.05;6.32;;;;;;;;;;4995561;28;20026;-30
2022/03/08 01:50:58;;;;;;;40.10;6.00;;;;;;;;;;4977714;28;20408;-31
2022/03/08 01:53:24;;;;;;;28.33;6.13;;;;;;;;;;4995223;28;20027;-31
2022/03/08 01:55:52;;;;;;;20.77;4.93;;;;;;;;;;4995249;28;20489;-30
2022/03/08 01:58:19;;;;;;;20.52;5.30;;;;;;;;;;4995393;28;20029;-31
2022/03/08 02:00:46;;;;;;;24.23;5.70;;;;;;;;;;4995428;28;20034;-31
2022/03/08 02:03:13;;;;;;;26.23;5.82;;;;;;;;;;4995529;28;20128;-31
2022/03/08 02:05:40;;;;;;;27.08;5.88;;;;;;;;;;4997647;28;20373;-31
2022/03/08 02:08:07;;;;;;;21.88;5.70;;;;;;;;;;4999707;28;20038;-31
2022/03/08 02:10:34;;;;;;;21.77;5.43;;;;;;;;;;5008718;28;20034;-31
2022/03/08 02:13:01;;;;;;;15.15;4.50;;;;;;;;;;5015018;28;20028;-31
2022/03/08 02:15:29;;;;;;;19.13;5.13;;;;;;;;;;5014896;28;20032;-31
2022/03/08 02:17:57;;;;;;;16.38;4.93;;;;;;;;;;5014831;28;20101;-31
2022/03/08 02:20:24;;;;;;;17.60;4.20;;;;;;;;;;5014811;28;20076;-31
2022/03/08 02:22:51;;;;;;;21.02;4.57;;;;;;;;;;5014725;28;20034;-31
2022/03/08 02:25:19;;;;;;;18.30;4.75;;;;;;;;;;5014820;28;20401;-31
2022/03/08 02:27:47;;;;;;;19.33;5.03;;;;;;;;;;5014685;28;20089;-31
2022/03/08 02:30:15;;;;;;;17.05;4.47;;;;;;;;;;5014676;28;20439;-31
2022/03/08 02:32:42;;;;;;;17.17;4.93;;;;;;;;;;5014592;28;20022;-31
2022/03/08 02:35:12;;;;;;;19.92;4.90;;;;;;;;;;5014673;28;20420;-31
2022/03/08 02:37:47;;;;;;;14.88;4.18;;;;;;;;;;5014568;28;20038;-31
2022/03/08 02:40:16;;;;;;;19.08;4.72;;;;;;;;;;5014370;28;20034;-31
2022/03/08 02:42:43;;;;;;;17.33;4.65;;;;;;;;;;5014335;28;20045;-31
2022/03/08 02:45:11;;;;;;;13.75;4.10;;;;;;;;;;4996707;28;20429;-31
2022/03/08 02:47:39;;;;;;;17.20;4.63;;;;;;;;;;5014420;28;20026;-31
2022/03/08 02:50:07;;;;;;;13.30;3.80;;;;;;;;;;5014451;28;20033;-31
2022/03/08 02:52:34;;;;;;;11.77;4.10;;;;;;;;;;5014185;28;20037;-31
2022/03/08 02:55:01;;;;;;;12.35;4.20;;;;;;;;;;4996668;28;20058;-31
2022/03/08 02:57:29;;;;;;;15.40;4.63;;;;;;;;;;5014216;28;20026;-31
2022/03/08 02:59:55;;;;;;;12.43;3.53;;;;;;;;;;5014119;28;20034;-31
2022/03/08 03:02:22;;;;;;;14.68;4.72;;;;;;;;;;5014091;28;20026;-31
2022/03/08 03:04:49;;;;;;;15.25;4.13;;;;;;;;;;5014075;28;20018;-31
2022/03/08 03:07:16;;;;;;;11.48;3.42;;;;;;;;;;5014003;28;20032;-31
2022/03/08 03:09:44;;;;;;;10.35;3.88;;;;;;;;;;5013998;28;20072;-31
2022/03/08 03:12:10;;;;;;;14.93;4.32;;;;;;;;;;5013853;28;20084;-31
2022/03/08 03:14:37;;;;;;;12.35;3.70;;;;;;;;;;5013867;28;20396;-31
2022/03/08 03:17:05;;;;;;;12.00;3.38;;;;;;;;;;5013706;28;20568;-31
2022/03/08 03:19:31;;;;;;;11.48;3.80;;;;;;;;;;5013756;28;20547;-31
2022/03/08 03:21:58;;;;;;;11.50;4.05;;;;;;;;;;5012594;28;20044;-31
2022/03/08 03:24:25;;;;;;;8.27;3.13;;;;;;;;;;5013634;28;20395;-31
2022/03/08 03:26:52;;;;;;;12.98;4.22;;;;;;;;;;5013711;28;20030;-31
2022/03/08 03:29:19;;;;;;;7.10;3.00;;;;;;;;;;5013581;28;20113;-31
2022/03/08 03:31:46;;;;;;;9.15;3.30;;;;;;;;;;5013475;28;20443;-31
2022/03/08 03:34:13;;;;;;;13.07;3.55;;;;;;;;;;5013593;28;20092;-31
2022/03/08 03:36:40;;;;;;;13.27;3.10;;;;;;;;;;5013554;28;20026;-31
2022/03/08 03:39:08;;;;;;;9.52;3.20;;;;;;;;;;5013379;28;20148;-31
2022/03/08 03:41:35;;;;;;;10.27;2.90;;;;;;;;;;5013405;28;20443;-31
2022/03/08 03:44:02;;;;;;;5.78;2.72;;;;;;;;;;5013359;28;20366;-31
2022/03/08 03:46:29;;;;;;;11.10;3.10;;;;;;;;;;5013375;28;20030;-30
2022/03/08 03:48:56;;;;;;;11.27;2.58;;;;;;;;;;5013326;28;20097;-31
2022/03/08 03:51:23;;;;;;;6.13;2.33;;;;;;;;;;5013143;28;20026;-31
2022/03/08 03:53:50;;;;;;;8.15;2.40;;;;;;;;;;5013257;28;20025;-31
2022/03/08 03:56:17;;;;;;;5.90;2.53;;;;;;;;;;5012918;28;20184;-31
2022/03/08 03:58:44;;;;;;;12.63;2.60;;;;;;;;;;5013036;28;20487;-31
2022/03/08 04:01:11;;;;;;;6.22;2.60;;;;;;;;;;5013134;28;20068;-31
2022/03/08 04:03:38;;;;;;;8.10;2.75;;;;;;;;;;5012975;28;20030;-31
2022/03/08 04:06:05;;;;;;;6.95;2.95;;;;;;;;;;5013055;28;20211;-31
2022/03/08 04:08:32;;;;;;;5.90;2.38;;;;;;;;;;5013081;28;20021;-31
2022/03/08 04:10:59;;;;;;;5.50;2.00;;;;;;;;;;4995300;28;20457;-31
2022/03/08 04:13:26;;;;;;;6.13;1.80;;;;;;;;;;5012903;28;20507;-31
2022/03/08 04:15:53;;;;;;;6.82;1.90;;;;;;;;;;5012929;28;20025;-31
2022/03/08 04:18:20;;;;;;;6.07;2.28;;;;;;;;;;5012850;28;20022;-31
2022/03/08 04:20:47;;;;;;;3.38;1.55;;;;;;;;;;5012849;28;20037;-31
2022/03/08 04:23:14;;;;;;;7.43;2.17;;;;;;;;;;4995467;28;20022;-31
2022/03/08 04:25:41;;;;;;;5.75;1.75;;;;;;;;;;5012869;28;20029;-30
2022/03/08 04:28:08;;;;;;;4.15;1.83;;;;;;;;;;4995091;28;20369;-31
2022/03/08 04:30:35;;;;;;;4.75;1.55;;;;;;;;;;5012891;28;20046;-31
2022/03/08 04:33:02;;;;;;;8.95;1.98;;;;;;;;;;5013921;28;20021;-31
2022/03/08 04:35:29;;;;;;;3.50;1.60;;;;;;;;;;5019235;28;20056;-31
2022/03/08 04:37:56;;;;;;;3.80;1.55;;;;;;;;;;5019216;28;20022;-31
2022/03/08 04:40:23;;;;;;;4.18;1.45;;;;;;;;;;5019183;28;20037;-31
2022/03/08 04:42:50;;;;;;;4.25;1.10;;;;;;;;;;5019102;28;20097;-31
2022/03/08 04:45:18;;;;;;;3.13;1.50;;;;;;;;;;5019241;28;20018;-31
2022/03/08 04:47:45;;;;;;;4.00;1.30;;;;;;;;;;5019041;28;20392;-31
2022/03/08 04:50:14;;;;;;;2.70;1.10;;;;;;;;;;5019094;28;20022;-30
2022/03/08 04:52:42;;;;;;;3.45;1.48;;;;;;;;;;5018958;28;20451;-31
2022/03/08 04:55:09;;;;;;;2.90;1.08;;;;;;;;;;5018971;28;20144;-31
2022/03/08 04:57:36;;;;;;;2.15;1.02;;;;;;;;;;5001310;28;20388;-30
2022/03/08 05:00:05;;;;;;;1.88;0.93;;;;;;;;;;5019018;28;20037;-31
2022/03/08 05:02:32;;;;;;;3.65;1.27;;;;;;;;;;5018937;28;20025;-31
2022/03/08 05:04:59;;;;;;;2.47;0.98;;;;;;;;;;5018994;28;20045;-31
2022/03/08 05:07:25;;;;;;;1.92;0.90;;;;;;;;;;5019026;28;20021;-31
2022/03/08 05:09:52;;;;;;;2.80;1.17;;;;;;;;;;5019001;28;20543;-31
2022/03/08 05:12:22;;;;;;;2.42;0.98;;;;;;;;;;5018673;28;20045;-31
2022/03/08 05:14:49;;;;;;;2.72;1.10;;;;;;;;;;5018908;28;20026;-31
2022/03/08 05:17:16;;;;;;;5.05;0.98;;;;;;;;;;5019112;28;20419;-31
2022/03/08 05:19:43;;;;;;;1.63;0.98;;;;;;;;;;5018880;28;20457;-31
2022/03/08 05:22:10;;;;;;;2.17;0.88;;;;;;;;;;5018815;28;20033;-31
2022/03/08 05:24:37;;;;;;;2.72;0.73;;;;;;;;;;5018887;28;20033;-31
2022/03/08 05:27:04;;;;;;;1.55;0.80;;;;;;;;;;5018900;28;20096;-31
2022/03/08 05:29:31;;;;;;;2.80;0.82;;;;;;;;;;5018881;28;20108;-31
2022/03/08 05:31:58;;;;;;;2.25;0.75;;;;;;;;;;5018583;28;20022;-31
2022/03/08 05:34:25;;;;;;;3.65;0.70;;;;;;;;;;5018750;28;20050;-30
2022/03/08 05:36:52;;;;;;;0.93;0.57;;;;;;;;;;5018754;28;20503;-31
2022/03/08 05:39:20;;;;;;;3.22;0.88;;;;;;;;;;5018565;28;20045;-31
2022/03/08 05:41:47;;;;;;;0.98;0.55;;;;;;;;;;5018640;28;20496;-31
2022/03/08 05:44:14;;;;;;;2.47;0.60;;;;;;;;;;5018297;28;20033;-31
2022/03/08 05:46:40;;;;;;;0.50;0.40;;;;;;;;;;5014944;28;20060;-31
2022/03/08 05:49:08;;;;;;;1.85;0.60;;;;;;;;;;5015524;28;20026;-31
2022/03/08 05:51:35;;;;;;;1.48;0.52;;;;;;;;;;5015738;28;20384;-31
2022/03/08 05:54:02;;;;;;;1.45;0.50;;;;;;;;;;5015446;28;20029;-31
2022/03/08 05:56:29;;;;;;;1.45;0.60;;;;;;;;;;5015239;28;20108;-31
2022/03/08 05:58:55;;;;;;;0.95;0.60;;;;;;;;;;5015271;28;20527;-31
2022/03/08 06:01:22;;;;;;;0.30;0.30;;;;;;;;;;5015233;28;20077;-31
2022/03/08 06:03:49;;;;;;;1.35;0.70;;;;;;;;;;5015304;28;20018;-31
2022/03/08 06:06:16;;;;;;;3.13;0.77;;;;;;;;;;5015302;28;20096;-31
2022/03/08 06:08:43;;;;;;;1.88;0.80;;;;;;;;;;5015234;28;20022;-31
2022/03/08 06:11:10;;;;;;;1.88;0.68;;;;;;;;;;5015036;28;20026;-32
2022/03/08 06:13:37;;;;;;;1.15;0.40;;;;;;;;;;5015136;28;20030;-31
2022/03/08 06:16:05;;;;;;;1.70;0.60;;;;;;;;;;5015000;28;20022;-31
2022/03/08 06:18:32;;;;;;;0.98;0.47;;;;;;;;;;5014972;28;20520;-31
2022/03/08 06:20:58;;;;;;;1.35;0.40;;;;;;;;;;5014857;28;20050;-30
2022/03/08 06:23:26;;;;;;;1.40;0.60;;;;;;;;;;4997087;28;20029;-31
2022/03/08 06:25:53;;;;;;;0.90;0.40;;;;;;;;;;5014868;28;20029;-31
2022/03/08 06:28:20;;;;;;;1.15;0.50;;;;;;;;;;5014833;28;20018;-31
2022/03/08 06:33:17;;;;;;;0.70;0.30;;;;;;;;;;4992015;28;20046;-33
2022/03/08 06:35:44;;;;;;;0.52;0.38;;;;;;;;;;4993640;28;20031;-33
2022/03/08 06:38:11;;;;;;;0.60;0.30;;;;;;;;;;4991284;28;20054;-33
2022/03/08 06:40:38;;;;;;;1.08;0.40;;;;;;;;;;4977354;28;20038;-32
2022/03/08 06:43:05;;;;;;;0.32;0.28;;;;;;;;;;4994718;28;20034;-33
2022/03/08 06:45:32;;;;;;;1.30;0.50;;;;;;;;;;4994850;28;20038;-32
2022/03/08 06:47:59;;;;;;;0.70;0.35;;;;;;;;;;4994731;28;20026;-34
2022/03/08 06:50:26;;;;;;;0.85;0.30;;;;;;;;;;4994752;28;20034;-33
2022/03/08 06:52:53;;;;;;;0.40;0.30;;;;;;;;;;4994568;28;20054;-33
2022/03/08 06:55:20;;;;;;;0.60;0.30;;;;;;;;;;4994566;28;20109;-33
2022/03/08 06:57:47;;;;;;;1.20;0.40;;;;;;;;;;4994421;28;20022;-32
2022/03/08 07:00:14;;;;;;;1.67;0.40;;;;;;;;;;4994427;28;20037;-33
2022/03/08 07:02:41;;;;;;;0.77;0.30;;;;;;;;;;4976840;28;20030;-33
2022/03/08 07:05:10;;;;;;;1.02;0.40;;;;;;;;;;4994389;28;20022;-32
2022/03/08 07:07:38;;;;;;;0.40;0.30;;;;;;;;;;4994265;28;20041;-33
2022/03/08 07:10:06;;;;;;;1.58;0.50;;;;;;;;;;4994206;28;20085;-33
2022/03/08 07:12:33;;;;;;;1.75;0.32;;;;;;;;;;4994159;28;20101;-33
2022/03/08 07:15:00;;;;;;;1.17;0.28;;;;;;;;;;4994209;28;20528;-32
2022/03/08 07:17:27;;;;;;;0.50;0.30;;;;;;;;;;4994169;28;20023;-32
2022/03/08 07:19:54;;;;;;;0.55;0.40;;;;;;;;;;4994053;28;20106;-33
2022/03/08 07:22:21;;;;;;;1.20;0.32;;;;;;;;;;4994001;28;20539;-33
2022/03/08 07:24:48;;;;;;;0.82;0.30;;;;;;;;;;4994297;28;20097;-33
2022/03/08 07:27:15;;;;;;;0.43;0.30;;;;;;;;;;4994326;28;20036;-33
2022/03/08 07:29:43;;;;;;;1.75;0.35;;;;;;;;;;4993910;28;20080;-32
2022/03/08 07:32:11;;;;;;;0.47;0.35;;;;;;;;;;4993566;28;20062;-33
2022/03/08 07:34:37;;;;;;;0.55;0.30;;;;;;;;;;4993854;28;20034;-33
2022/03/08 07:37:05;;;;;;;0.73;0.28;;;;;;;;;;4993831;28;20023;-32
2022/03/08 07:39:32;;;;;;;0.40;0.30;;;;;;;;;;4993668;28;20057;-33
2022/03/08 07:41:59;;;;;;;0.30;0.20;;;;;;;;;;4993642;28;20587;-33
2022/03/08 07:44:26;;;;;;;0.17;0.15;;;;;;;;;;4993728;28;20034;-33
2022/03/08 07:46:53;;;;;;;0.57;0.22;;;;;;;;;;4993541;28;20033;-33
2022/03/08 07:49:20;;;;;;;1.48;0.22;;;;;;;;;;4993529;28;20042;-32
2022/03/08 07:51:47;;;;;;;0.50;0.30;;;;;;;;;;4993434;28;20382;-33
2022/03/08 07:54:14;;;;;;;0.57;0.20;;;;;;;;;;4993558;28;20122;-32
2022/03/08 07:56:41;;;;;;;0.40;0.20;;;;;;;;;;4993519;28;20026;-32
2022/03/08 07:59:08;;;;;;;0.75;0.28;;;;;;;;;;4993318;28;20041;-32
2022/03/08 08:01:35;;;;;;;0.30;0.28;;;;;;;;;;4993340;28;20042;-32
2022/03/08 08:04:02;;;;;;;0.68;0.30;;;;;;;;;;4993330;28;20065;-32
2022/03/08 08:09:39;;;;;;;0.70;0.30;;;;;;;;;;4992726;28;20092;-33
2022/03/08 08:12:07;;;;;;;0.50;0.28;;;;;;;;;;4992838;28;20026;-33
2022/03/08 08:14:34;;;;;;;0.20;0.10;;;;;;;;;;4992826;28;20420;-32
2022/03/08 08:17:01;;;;;;;1.00;0.40;;;;;;;;;;4992871;28;20061;-32
2022/03/08 08:19:28;;;;;;;0.43;0.30;;;;;;;;;;4992802;28;20392;-32
2022/03/08 08:21:55;;;;;;;1.15;0.30;;;;;;;;;;4992737;28;20037;-32
2022/03/08 08:24:22;;;;;;;0.82;0.20;;;;;;;;;;4992775;28;20503;-33
2022/03/08 08:26:49;;;;;;;1.58;0.28;;;;;;;;;;4992789;28;20026;-33
2022/03/08 08:29:17;;;;;;;0.25;0.15;;;;;;;;;;4992989;28;20404;-33
2022/03/08 08:31:44;;;;;;;0.20;0.20;;;;;;;;;;4992533;28;20042;-33
2022/03/08 08:34:11;;;;;;;1.65;0.22;;;;;;;;;;4992984;28;20022;-33
2022/03/08 08:36:38;;;;;;;0.47;0.30;;;;;;;;;;4992614;28;20026;-33
2022/03/08 08:39:05;;;;;;;0.98;0.30;;;;;;;;;;4992597;28;20366;-32
2022/03/08 08:41:32;;;;;;;0.28;0.20;;;;;;;;;;4992471;28;20046;-32
2022/03/08 08:43:59;;;;;;;1.20;0.30;;;;;;;;;;4992534;28;20035;-33
2022/03/08 08:46:26;;;;;;;0.73;0.30;;;;;;;;;;4992815;28;20125;-32
2022/03/08 08:48:53;;;;;;;0.88;0.40;;;;;;;;;;4992557;28;20547;-32
2022/03/08 08:51:20;;;;;;;0.35;0.30;;;;;;;;;;4992502;28;20109;-33
2022/03/08 08:53:47;;;;;;;0.63;0.30;;;;;;;;;;4992864;28;20029;-33
2022/03/08 08:56:14;;;;;;;0.60;0.25;;;;;;;;;;4992470;28;20030;-32
2022/03/08 08:58:41;;;;;;;0.70;0.30;;;;;;;;;;4992469;28;20480;-33
2022/03/08 09:01:08;;;;;;;0.75;0.40;;;;;;;;;;4992653;28;20061;-33
2022/03/08 09:03:35;;;;;;;0.85;0.30;;;;;;;;;;4992468;28;20026;-33
2022/03/08 09:06:02;;;;;;;0.50;0.30;;;;;;;;;;4992377;28;20027;-33
2022/03/08 09:08:29;;;;;;;0.60;0.40;;;;;;;;;;4992353;28;20085;-32
2022/03/08 09:10:56;;;;;;;0.65;0.45;;;;;;;;;;4992293;28;20023;-33
2022/03/08 09:13:24;;;;;;;0.77;0.40;;;;;;;;;;4990043;28;20026;-32
2022/03/08 09:15:51;;;;;;;0.63;0.40;;;;;;;;;;4988448;28;20027;-33
2022/03/08 09:18:18;;;;;;;0.85;0.45;;;;;;;;;;4991834;28;20385;-32
2022/03/08 09:20:45;;;;;;;0.95;0.50;;;;;;;;;;4994093;28;20049;-32
2022/03/08 09:23:12;;;;;;;0.75;0.50;;;;;;;;;;4996427;28;20034;-32
2022/03/08 09:25:39;;;;;;;1.50;0.60;;;;;;;;;;4996495;28;20126;-32
2022/03/08 09:28:07;;;;;;;1.27;0.60;;;;;;;;;;4996031;28;20031;-32
2022/03/08 09:30:35;;;;;;;1.30;0.60;;;;;;;;;;4996108;28;20035;-32
2022/03/08 09:33:02;;;;;;;2.28;0.80;;;;;;;;;;4996077;28;20053;-32
2022/03/08 09:35:29;;;;;;;7.20;1.33;;;;;;;;;;4996197;28;20034;-32
2022/03/08 09:37:57;;;;;;;2.58;0.90;;;;;;;;;;4996103;28;20109;-32
2022/03/08 09:40:24;;;;;;;1.52;0.80;;;;;;;;;;4996058;28;20058;-32
2022/03/08 09:42:51;;;;;;;2.47;1.00;;;;;;;;;;4995935;28;20030;-33
2022/03/08 09:45:19;;;;;;;2.53;1.00;;;;;;;;;;4996059;28;20061;-33
2022/03/08 09:47:46;;;;;;;2.15;1.50;;;;;;;;;;4977994;28;20409;-33
2022/03/08 09:50:14;;;;;;;2.70;1.20;;;;;;;;;;4995766;28;20093;-33
2022/03/08 09:52:41;;;;;;;3.08;1.48;;;;;;;;;;4995974;28;20829;-33
2022/03/08 09:55:11;;;;;;;3.80;1.30;;;;;;;;;;4995822;28;20089;-33
2022/03/08 09:57:38;;;;;;;3.97;1.45;;;;;;;;;;4995803;28;20034;-33
2022/03/08 10:00:06;;;;;;;5.38;1.75;;;;;;;;;;4995742;28;20030;-33
2022/03/08 10:02:46;;;;;;;16.75;5.57;;;;;;;;;;4995659;28;20108;-33
2022/03/08 10:05:13;;;;;;;21.55;6.43;;;;;;;;;;4995702;28;20076;-33
2022/03/08 10:07:40;;;;;;;16.02;6.75;;;;;;;;;;4995676;28;20028;-33
2022/03/08 10:10:07;;;;;;;16.67;6.40;;;;;;;;;;4995560;28;20121;-33
2022/03/08 10:12:34;;;;;;;13.00;6.70;;;;;;;;;;4995477;28;20034;-33
2022/03/08 10:15:17;;;;;;;12.93;6.22;;;;;;;;;;4995475;28;20053;-33
2022/03/08 10:17:43;;;;;;;;;;;;;;;;;;4995838;28;20109;-34
2022/03/08 10:20:12;;;;;;;18.02;7.03;;;;;;;;;;4995362;28;19933;-34
2022/03/08 10:22:43;;;;;;;15.35;7.03;;;;;;;;;;4995142;28;20084;-33
2022/03/08 10:25:12;;;;;;;15.07;6.43;;;;;;;;;;4995191;28;20457;-34
2022/03/08 10:27:42;;;;;;;17.77;6.72;;;;;;;;;;4995338;28;20029;-34
2022/03/08 10:30:12;;;;;;;16.27;6.65;;;;;;;;;;4995433;28;20057;-34
2022/03/08 10:32:40;;;;;;;16.48;6.72;;;;;;;;;;4994261;28;20058;-34
2022/03/08 10:35:09;;;;;;;17.85;5.80;;;;;;;;;;4995038;28;20034;-34
2022/03/08 10:37:38;;;;;;;18.92;6.00;;;;;;;;;;4994982;28;20042;-34
2022/03/08 10:40:09;;;;;;;13.13;5.40;;;;;;;;;;4995008;28;20038;-32
2022/03/08 10:42:38;;;;;;;14.80;5.70;;;;;;;;;;4994782;28;20030;-33
2022/03/08 10:45:05;;;;;;;12.02;5.00;;;;;;;;;;4994843;28;20069;-32
2022/03/08 10:47:58;;;;;;;9.93;4.53;;;;;;;;;;4994883;28;20034;-33
2022/03/08 10:50:28;;;;;;;10.85;3.95;;;;;;;;;;4991495;28;20070;-33
2022/03/08 10:52:56;;;;;;;11.50;3.75;;;;;;;;;;4994673;28;20054;-33
2022/03/08 10:55:24;;;;;;;8.15;3.30;;;;;;;;;;4994784;28;20105;-33
2022/03/08 10:57:56;;;;;;;8.35;3.50;;;;;;;;;;4995022;28;20034;-31
2022/03/08 11:00:28;;;;;;;10.07;3.57;;;;;;;;;;4988775;28;20070;-32
2022/03/08 11:02:56;;;;;;;10.52;4.00;;;;;;;;;;4993009;28;20484;-35
2022/03/08 11:05:27;;;;;;;13.20;4.65;;;;;;;;;;4976490;28;20454;-33
2022/03/08 11:07:57;;;;;;;11.23;5.40;;;;;;;;;;4994195;28;20022;-33
2022/03/08 11:10:24;;;;;;;14.73;5.78;;;;;;;;;;4993595;28;20045;-33
2022/03/08 11:12:56;;;;;;;34.72;7.25;;;;;;;;;;4994185;28;20026;-33
2022/03/08 11:15:24;;;;;;;43.10;9.70;;;;;;;;;;4994127;28;20116;-33
2022/03/08 11:17:52;;;;;;;30.08;10.25;;;;;;;;;;4994100;28;20030;-31
2022/03/08 11:20:21;;;;;;;593.45;33.55;;;;;;;;;;4993914;28;20450;-33
2022/03/08 11:22:51;;;;;;;34.13;8.77;;;;;;;;;;4993956;28;20023;-33
2022/03/08 11:25:19;;;;;;;248.50;23.75;;;;;;;;;;4993785;28;20113;-32
2022/03/08 11:27:47;;;;;;;117.53;14.73;;;;;;;;;;4993201;28;20034;-32
2022/03/08 11:30:17;;;;;;;97.88;10.93;;;;;;;;;;4993819;28;20045;-32
2022/03/08 11:32:50;;;;;;;65.25;11.00;;;;;;;;;;4993712;28;20564;-31
2022/03/08 11:35:26;;;;;;;59.85;8.40;;;;;;;;;;4993721;28;20072;-32
2022/03/08 11:37:53;;;;;;;36.05;4.75;;;;;;;;;;4993613;28;20038;-38
2022/03/08 11:40:21;;;;;;;19.58;3.88;;;;;;;;;;4993487;28;20045;-38
2022/03/08 11:42:51;;;;;;;46.13;6.65;;;;;;;;;;4992828;28;20061;-37
2022/03/08 11:45:20;;;;;;;16.85;6.40;;;;;;;;;;4993471;28;20461;-38
2022/03/08 11:47:53;;;;;;;28.27;9.35;;;;;;;;;;4993557;28;20027;-37
2022/03/08 11:50:22;;;;;;;30.70;9.77;;;;;;;;;;4992754;28;20078;-38
2022/03/08 11:52:53;;;;;;;21.25;8.95;;;;;;;;;;4993450;28;20018;-37
2022/03/08 11:55:26;;;;;;;20.35;7.93;;;;;;;;;;4990822;28;20034;-35
2022/03/08 11:57:54;;;;;;;113.43;13.43;;;;;;;;;;4991415;28;20042;-38
2022/03/08 12:00:23;;;;;;;48.47;8.48;;;;;;;;;;4992699;28;20113;-38
2022/03/08 12:02:51;;;;;;;22.83;6.50;;;;;;;;;;4992796;28;20037;-38
2022/03/08 12:05:37;;;;;;;26.10;6.72;;;;;;;;;;4992961;28;20026;-37
2022/03/08 12:08:25;;;;;;;13.98;4.90;;;;;;;;;;4993000;28;20387;-37
2022/03/08 12:11:00;;;;;;;12.50;5.10;;;;;;;;;;4992951;28;20038;-37
2022/03/08 12:13:32;;;;;;;11.45;4.15;;;;;;;;;;4992913;28;20042;-37
2022/03/08 12:16:09;;;;;;;8.30;4.15;;;;;;;;;;4975485;28;20110;-38
2022/03/08 12:18:38;;;;;;;12.32;4.45;;;;;;;;;;4992917;28;20030;-38
2022/03/08 12:21:27;;;;;;;10.02;4.20;;;;;;;;;;4992697;28;20049;-37
2022/03/08 12:23:54;;;;;;;14.57;4.25;;;;;;;;;;4954054;28;20042;-37
2022/03/08 12:26:31;;;;;;;11.48;3.95;;;;;;;;;;4992877;28;20038;-37
2022/03/08 12:29:11;;;;;;;9.40;3.35;;;;;;;;;;4992881;28;20030;-37
2022/03/08 12:31:56;;;;;;;10.25;3.85;;;;;;;;;;4992652;28;20070;-37
2022/03/08 12:34:42;;;;;;;7.45;3.22;;;;;;;;;;4992858;28;20026;-37
2022/03/08 12:37:12;;;;;;;13.35;3.38;;;;;;;;;;4992689;28;20086;-37
2022/03/08 12:39:45;;;;;;;8.52;2.97;;;;;;;;;;4992633;28;20030;-37
2022/03/08 12:42:23;;;;;;;7.32;2.22;;;;;;;;;;4992551;28;20026;-37
2022/03/08 12:45:06;;;;;;;7.18;1.45;;;;;;;;;;4992738;28;20031;-37
2022/03/08 12:47:32;;;;;;;;;;;;;;;;;;4993210;28;20022;-37
2022/03/08 12:50:01;;;;;;;8.90;1.00;;;;;;;;;;4992663;28;20391;-37
2022/03/08 12:52:29;;;;;;;8.02;0.60;;;;;;;;;;4992431;28;20031;-36
2022/03/08 12:54:57;;;;;;;3.72;0.70;;;;;;;;;;4994618;28;20026;-36
2022/03/08 12:57:24;;;;;;;6.82;1.13;;;;;;;;;;4996691;28;20034;-36
2022/03/08 12:59:52;;;;;;;3.00;1.00;;;;;;;;;;4996486;28;20026;-36
2022/03/08 13:02:20;;;;;;;3.95;0.90;;;;;;;;;;4996324;28;20077;-36
2022/03/08 13:04:48;;;;;;;8.50;1.38;;;;;;;;;;4996439;28;20029;-36
2022/03/08 13:07:17;;;;;;;7.25;0.90;;;;;;;;;;4996408;28;20037;-35
2022/03/08 13:10:00;;;;;;;4.93;0.70;;;;;;;;;;4996232;28;20039;-34
2022/03/08 13:12:32;;;;;;;6.70;0.77;;;;;;;;;;4996198;28;20035;-35
2022/03/08 13:15:09;;;;;;;3.55;0.50;;;;;;;;;;4996193;28;20404;-35
2022/03/08 13:17:37;;;;;;;6.38;0.70;;;;;;;;;;4996280;28;20101;-35
2022/03/08 13:20:05;;;;;;;4.07;0.85;;;;;;;;;;4996216;28;20058;-34
2022/03/08 13:22:32;;;;;;;3.50;1.20;;;;;;;;;;4996172;28;20029;-34
2022/03/08 13:25:09;;;;;;;12.68;1.42;;;;;;;;;;4996157;28;20440;-35
2022/03/08 13:27:56;;;;;;;5.63;1.20;;;;;;;;;;4996098;28;20030;-34
2022/03/08 13:30:25;;;;;;;18.55;1.40;;;;;;;;;;4995816;28;20093;-34
2022/03/08 13:33:21;;;;;;;8.88;1.02;;;;;;;;;;4995744;28;20148;-34
2022/03/08 13:35:50;;;;;;;21.08;1.17;;;;;;;;;;4979494;28;20085;-35
2022/03/08 13:38:18;;;;;;;5.75;1.20;;;;;;;;;;4995757;28;20366;-34
2022/03/08 13:40:46;;;;;;;7.90;1.98;;;;;;;;;;4993971;28;20023;-35
2022/03/08 13:43:14;;;;;;;11.82;2.47;;;;;;;;;;5032702;28;20399;-35
2022/03/08 13:45:42;;;;;;;9.90;1.77;;;;;;;;;;5034884;28;20025;-34
2022/03/08 13:48:11;;;;;;;3.95;1.85;;;;;;;;;;5034598;28;20032;-34
2022/03/08 13:50:38;;;;;;;4.47;1.50;;;;;;;;;;5034277;28;20029;-34
2022/03/08 13:53:06;;;;;;;5.45;1.90;;;;;;;;;;5034631;28;20141;-34
2022/03/08 13:55:33;;;;;;;10.07;1.58;;;;;;;;;;5034293;28;20030;-34
2022/03/08 13:58:01;;;;;;;9.82;1.65;;;;;;;;;;4994198;28;20121;-34
2022/03/08 14:00:33;;;;;;;14.80;1.38;;;;;;;;;;4995039;28;20049;-34
2022/03/08 14:03:01;;;;;;;11.38;1.65;;;;;;;;;;4995495;28;20030;-34
2022/03/08 14:05:28;;;;;;;7.70;1.65;;;;;;;;;;4994962;28;20030;-34
2022/03/08 14:08:03;;;;;;;14.55;2.38;;;;;;;;;;4995056;28;20117;-32
2022/03/08 14:10:30;;;;;;;13.68;2.08;;;;;;;;;;4995325;28;20078;-33
2022/03/08 14:12:58;;;;;;;8.32;1.20;;;;;;;;;;4995034;28;20034;-34
2022/03/08 14:15:26;;;;;;;7.97;0.93;;;;;;;;;;4995259;28;20038;-33
2022/03/08 14:18:07;;;;;;;14.13;1.23;;;;;;;;;;4995053;28;20038;-33
2022/03/08 14:20:42;;;;;;;5.03;0.75;;;;;;;;;;4994828;28;20337;-33
2022/03/08 14:23:10;;;;;;;7.95;1.00;;;;;;;;;;4994944;28;20125;-32
2022/03/08 14:25:56;;;;;;;11.23;0.75;;;;;;;;;;4995016;28;20097;-32
2022/03/08 14:28:41;;;;;;;5.88;0.85;;;;;;;;;;4994595;28;20058;-33
2022/03/08 14:31:26;;;;;;;4.25;0.90;;;;;;;;;;4994617;28;20042;-32
2022/03/08 14:33:54;;;;;;;6.50;0.63;;;;;;;;;;4994797;28;20045;-32
2022/03/08 14:36:36;;;;;;;18.80;2.97;;;;;;;;;;4993781;28;20124;-33
2022/03/08 14:39:21;;;;;;;16.98;3.35;;;;;;;;;;4992968;28;20035;-32
2022/03/08 14:42:12;;;;;;;13.57;2.25;;;;;;;;;;4996565;28;20065;-32
2022/03/08 14:44:54;;;;;;;17.88;2.38;;;;;;;;;;4983991;28;20042;-32
2022/03/08 14:47:24;;;;;;;9.88;1.30;;;;;;;;;;4993648;28;20041;-32
2022/03/08 14:49:51;;;;;;;8.02;1.30;;;;;;;;;;4993293;28;20133;-32
2022/03/08 14:52:20;;;;;;;13.63;1.15;;;;;;;;;;4993637;28;20556;-32